Time;durP1;ratioP1;P1;durP2;ratioP2;P2;SDS_P1;SDS_P2;PMS_P1;PMS_P2;Temp;Humidity;BMP_temperature;BMP_pressure;BME280_temperature;BME280_humidity;BME280_pressure;Samples;Min_cycle;Max_cycle;Signal;HPM_P1;HPM_P2
2022/03/26 00:00:32;;;;;;;30.30;16.50;;;;;;;8.06;45.46;101731.16;4900123;29;20052;-68
2022/03/26 00:03:13;;;;;;;37.00;16.15;;;;;;;8.06;45.05;101738.50;4899729;29;20044;-67
2022/03/26 00:05:43;;;;;;;30.45;16.98;;;;;;;8.21;44.27;101748.97;4900275;29;20063;-67
2022/03/26 00:08:12;;;;;;;31.60;16.38;;;;;;;8.20;45.03;101744.56;4898225;29;20048;-67
2022/03/26 00:10:40;;;;;;;32.00;16.65;;;;;;;8.17;45.30;101745.88;4898968;29;20052;-68
2022/03/26 00:13:09;;;;;;;33.58;17.30;;;;;;;8.09;44.52;101742.66;4899582;29;20040;-67
2022/03/26 00:15:37;;;;;;;31.77;16.48;;;;;;;7.98;45.09;101747.03;4900070;29;20114;-67
2022/03/26 00:18:05;;;;;;;30.42;14.90;;;;;;;7.91;45.17;101749.84;4899652;29;20060;-68
2022/03/26 00:20:33;;;;;;;28.95;14.88;;;;;;;7.87;45.10;101751.41;4899987;29;20048;-67
2022/03/26 00:23:01;;;;;;;24.98;13.55;;;;;;;7.88;44.03;101750.31;4899724;29;20048;-67
2022/03/26 00:25:29;;;;;;;24.75;14.15;;;;;;;7.83;44.54;101751.03;4900188;29;20064;-68
2022/03/26 00:27:56;;;;;;;24.23;13.52;;;;;;;7.83;44.17;101742.84;4899696;29;20075;-68
2022/03/26 00:30:24;;;;;;;25.27;13.40;;;;;;;7.82;43.35;101762.97;4899736;29;20542;-68
2022/03/26 00:32:53;;;;;;;23.55;12.85;;;;;;;7.83;44.54;101744.75;4899744;29;20057;-67
2022/03/26 00:35:21;;;;;;;30.65;12.95;;;;;;;7.82;43.62;101754.78;4900301;29;20392;-67
2022/03/26 00:37:52;;;;;;;24.35;12.98;;;;;;;7.93;43.82;101762.19;4899678;29;20538;-67
2022/03/26 00:40:20;;;;;;;24.45;13.07;;;;;;;8.01;43.50;101758.28;4899870;29;20048;-68
2022/03/26 00:42:48;;;;;;;22.15;12.10;;;;;;;7.93;44.00;101755.91;4899121;29;20079;-67
2022/03/26 00:45:16;;;;;;;24.95;12.95;;;;;;;7.87;43.93;101757.66;4886561;29;20392;-67
2022/03/26 00:47:44;;;;;;;24.83;13.63;;;;;;;7.88;43.70;101753.06;4898942;29;20044;-67
2022/03/26 00:50:12;;;;;;;22.42;12.88;;;;;;;7.77;43.56;101755.50;4899560;29;20045;-68
2022/03/26 00:52:40;;;;;;;27.40;12.73;;;;;;;7.65;44.10;101754.63;4899976;29;20052;-67
2022/03/26 00:55:09;;;;;;;28.15;13.52;;;;;;;7.58;44.67;101754.72;4898940;29;20059;-67
2022/03/26 00:57:37;;;;;;;25.50;14.25;;;;;;;7.48;45.14;101755.28;4899495;29;20060;-67
2022/03/26 01:00:07;;;;;;;30.75;14.23;;;;;;;7.47;44.72;101756.34;4899865;29;20057;-67
2022/03/26 01:02:35;;;;;;;26.00;14.18;;;;;;;7.43;45.08;101760.56;4899358;29;20404;-67
2022/03/26 01:05:04;;;;;;;26.75;14.23;;;;;;;7.38;44.99;101755.81;4899310;29;20040;-67
2022/03/26 01:07:32;;;;;;;26.15;13.13;;;;;;;7.36;45.26;101763.41;4899364;29;20045;-67
2022/03/26 01:10:00;;;;;;;30.38;14.57;;;;;;;7.32;45.41;101758.63;4899547;29;20056;-68
2022/03/26 01:12:28;;;;;;;30.73;14.77;;;;;;;7.30;45.25;101764.31;4898609;29;20067;-67
2022/03/26 01:14:56;;;;;;;25.60;14.07;;;;;;;7.29;45.28;101759.94;4897912;29;20049;-67
2022/03/26 01:17:24;;;;;;;25.98;14.52;;;;;;;7.31;45.35;101762.41;4899267;29;20044;-68
2022/03/26 01:19:52;;;;;;;25.98;13.55;;;;;;;7.36;44.87;101751.66;4899389;29;20048;-67
2022/03/26 01:22:20;;;;;;;25.95;13.13;;;;;;;7.46;44.80;101757.41;4899068;29;20052;-67
2022/03/26 01:24:48;;;;;;;34.58;14.77;;;;;;;7.40;45.78;101758.31;4898725;29;20075;-67
2022/03/26 01:27:16;;;;;;;31.92;14.05;;;;;;;7.35;45.69;101756.28;4898985;29;20412;-68
2022/03/26 01:29:44;;;;;;;29.58;13.07;;;;;;;7.28;45.96;101757.44;4898252;29;20053;-67
2022/03/26 01:32:12;;;;;;;25.20;13.65;;;;;;;7.26;45.15;101755.78;4898296;29;20042;-67
2022/03/26 01:34:40;;;;;;;27.35;13.13;;;;;;;7.25;45.44;101754.09;4898364;29;20404;-67
2022/03/26 01:37:09;;;;;;;25.23;13.43;;;;;;;7.40;44.69;101758.31;4897026;29;20500;-68
2022/03/26 01:39:37;;;;;;;25.13;13.30;;;;;;;7.33;45.27;101757.59;4898796;29;20784;-68
2022/03/26 01:42:06;;;;;;;27.25;14.65;;;;;;;7.29;45.59;101746.31;4898598;29;20056;-68
2022/03/26 01:44:36;;;;;;;26.83;13.10;;;;;;;7.22;45.14;101749.13;4898785;29;20049;-67
2022/03/26 01:47:05;;;;;;;26.15;13.88;;;;;;;7.19;44.96;101738.66;4897781;29;20071;-67
2022/03/26 01:49:33;;;;;;;25.63;13.30;;;;;;;7.19;45.22;101741.38;4898587;29;20055;-67
2022/03/26 01:52:03;;;;;;;28.55;13.30;;;;;;;7.13;45.50;101745.88;4898641;29;20052;-67
2022/03/26 01:54:32;;;;;;;23.48;12.90;;;;;;;7.23;45.50;101742.59;4898532;29;20052;-68
2022/03/26 01:57:01;;;;;;;26.77;13.15;;;;;;;7.40;44.78;101736.53;4897978;29;20057;-68
2022/03/26 01:59:29;;;;;;;26.27;12.40;;;;;;;7.58;44.49;101740.28;4898571;29;20053;-68
2022/03/26 02:01:57;;;;;;;22.67;12.25;;;;;;;7.53;44.62;101738.25;4898227;29;20072;-67
2022/03/26 02:04:26;;;;;;;25.52;12.80;;;;;;;7.44;44.01;101736.91;4897900;29;20404;-67
2022/03/26 02:06:55;;;;;;;24.77;13.20;;;;;;;7.34;44.51;101742.91;4898043;29;20392;-68
2022/03/26 02:09:22;;;;;;;27.50;13.65;;;;;;;7.29;44.23;101745.47;4898101;29;20049;-67
2022/03/26 02:11:50;;;;;;;26.17;13.27;;;;;;;7.35;44.40;101736.38;4898346;29;20065;-67
2022/03/26 02:14:18;;;;;;;23.95;12.93;;;;;;;7.33;44.17;101746.69;4898161;29;20052;-68
2022/03/26 02:16:46;;;;;;;24.85;13.15;;;;;;;7.23;45.05;101748.03;4898232;29;20072;-67
2022/03/26 02:19:15;;;;;;;26.60;12.18;;;;;;;7.18;44.92;101742.44;4896270;29;20067;-68
2022/03/26 02:21:47;;;;;;;23.67;12.75;;;;;;;7.16;44.71;101751.91;4896281;29;20053;-68
2022/03/26 02:24:16;;;;;;;26.33;13.20;;;;;;;7.11;45.55;101745.28;4897599;29;20068;-67
2022/03/26 02:26:44;;;;;;;24.77;12.93;;;;;;;7.08;45.29;101750.31;4897918;29;20045;-68
2022/03/26 02:29:12;;;;;;;27.58;13.27;;;;;;;7.04;46.40;101751.84;4897357;29;20500;-67
2022/03/26 02:31:40;;;;;;;23.60;12.02;;;;;;;6.97;46.30;101749.19;4893402;29;20063;-68
2022/03/26 02:34:09;;;;;;;24.67;12.43;;;;;;;6.91;47.00;101745.50;4896114;29;20047;-68
2022/03/26 02:36:37;;;;;;;25.50;13.27;;;;;;;6.85;46.87;101740.97;4896064;29;20061;-67
2022/03/26 02:39:05;;;;;;;23.10;12.82;;;;;;;6.84;46.69;101747.44;4896990;29;20130;-67
2022/03/26 02:41:34;;;;;;;27.88;12.68;;;;;;;6.83;45.91;101748.50;4896052;29;20053;-67
2022/03/26 02:44:03;;;;;;;25.63;12.88;;;;;;;6.97;46.06;101754.63;4896452;29;20060;-68
2022/03/26 02:46:31;;;;;;;24.30;12.80;;;;;;;6.94;46.09;101750.47;4897452;29;20052;-67
2022/03/26 02:48:59;;;;;;;25.58;12.98;;;;;;;6.91;46.77;101741.94;4897855;29;20401;-67
2022/03/26 02:51:27;;;;;;;24.17;12.55;;;;;;;6.86;46.54;101748.06;4897176;29;20071;-67
2022/03/26 02:53:55;;;;;;;26.60;13.18;;;;;;;6.85;46.43;101752.66;4897134;29;20055;-68
2022/03/26 02:56:23;;;;;;;24.58;12.38;;;;;;;6.85;46.87;101746.41;4897400;29;20041;-67
2022/03/26 02:58:51;;;;;;;25.25;12.93;;;;;;;6.82;47.23;101753.13;4897344;29;20053;-68
2022/03/26 03:01:20;;;;;;;23.77;12.55;;;;;;;6.93;46.21;101753.41;4897301;29;20041;-68
2022/03/26 03:03:48;;;;;;;32.70;12.73;;;;;;;6.91;46.85;101760.97;4897543;29;20404;-68
2022/03/26 03:06:16;;;;;;;28.60;12.95;;;;;;;6.85;46.55;101757.28;4897431;29;20060;-67
2022/03/26 03:08:44;;;;;;;26.00;12.52;;;;;;;6.80;47.00;101754.41;4897355;29;20408;-67
2022/03/26 03:11:12;;;;;;;24.38;12.77;;;;;;;6.74;47.40;101755.31;4896475;29;20049;-67
2022/03/26 03:13:41;;;;;;;25.27;12.10;;;;;;;6.66;48.15;101754.56;4897321;29;20057;-67
2022/03/26 03:16:08;;;;;;;26.98;12.75;;;;;;;6.62;48.39;101756.06;4896589;29;20053;-67
2022/03/26 03:18:36;;;;;;;23.88;13.52;;;;;;;6.57;47.81;101754.00;4897158;29;20052;-68
2022/03/26 03:21:08;;;;;;;25.33;13.18;;;;;;;6.56;48.43;101749.59;4893543;29;20064;-68
2022/03/26 03:23:36;;;;;;;25.67;12.70;;;;;;;6.54;48.20;101754.44;4896201;29;20064;-67
2022/03/26 03:26:04;;;;;;;23.20;12.20;;;;;;;6.52;47.99;101750.28;4895388;29;20060;-68
2022/03/26 03:28:32;;;;;;;27.50;13.52;;;;;;;6.52;48.31;101755.72;4895759;29;20060;-67
2022/03/26 03:31:00;;;;;;;27.88;13.05;;;;;;;6.53;48.73;101750.06;4895708;29;20404;-68
2022/03/26 03:33:29;;;;;;;24.08;12.15;;;;;;;6.52;49.16;101753.84;4896810;29;20056;-68
2022/03/26 03:35:59;;;;;;;27.38;13.38;;;;;;;6.55;48.46;101749.84;4897076;29;20093;-67
2022/03/26 03:38:29;;;;;;;26.85;13.52;;;;;;;6.66;48.22;101753.72;4896780;29;20057;-67
2022/03/26 03:40:57;;;;;;;29.98;13.80;;;;;;;6.69;48.16;101747.81;4896426;29;20052;-67
2022/03/26 03:43:25;;;;;;;25.02;12.60;;;;;;;6.66;47.72;101749.13;4895370;29;20068;-67
2022/03/26 03:45:53;;;;;;;28.08;12.95;;;;;;;6.64;47.94;101759.38;4896605;29;20056;-68
2022/03/26 03:48:21;;;;;;;21.20;11.77;;;;;;;6.62;48.12;101757.94;4896790;29;20079;-67
2022/03/26 03:50:49;;;;;;;26.13;12.60;;;;;;;6.59;48.41;101759.19;4896864;29;20472;-68
2022/03/26 03:53:17;;;;;;;28.65;12.68;;;;;;;6.57;48.42;101764.88;4896687;29;20063;-67
2022/03/26 03:55:45;;;;;;;24.95;12.70;;;;;;;6.55;48.62;101763.44;4896793;29;20048;-67
2022/03/26 03:58:13;;;;;;;29.67;13.48;;;;;;;6.53;47.76;101760.09;4896999;29;20044;-67
2022/03/26 04:00:41;;;;;;;25.33;13.15;;;;;;;6.51;48.02;101767.66;4896596;29;20060;-67
2022/03/26 04:03:09;;;;;;;25.23;13.10;;;;;;;6.49;48.23;101764.34;4896665;29;20056;-68
2022/03/26 04:05:39;;;;;;;25.45;13.38;;;;;;;6.49;48.33;101767.88;4896634;29;20052;-67
2022/03/26 04:08:06;;;;;;;24.70;12.52;;;;;;;6.51;48.76;101773.09;4896768;29;20064;-67
2022/03/26 04:10:35;;;;;;;25.50;13.25;;;;;;;6.50;48.33;101774.16;4896534;29;20488;-67
2022/03/26 04:13:03;;;;;;;29.58;13.43;;;;;;;6.53;48.28;101781.84;4896744;29;20049;-67
2022/03/26 04:15:31;;;;;;;25.92;13.10;;;;;;;6.59;48.34;101776.38;4895298;29;20057;-68
2022/03/26 04:17:59;;;;;;;29.95;14.00;;;;;;;6.81;47.39;101777.84;4894302;29;20056;-67
2022/03/26 04:20:27;;;;;;;28.02;13.48;;;;;;;6.76;48.20;101773.06;4896288;29;20056;-68
2022/03/26 04:22:54;;;;;;;23.45;13.35;;;;;;;6.71;48.56;101772.91;4896109;29;20052;-67
2022/03/26 04:25:22;;;;;;;29.50;13.65;;;;;;;6.65;48.54;101776.53;4896321;29;20045;-68
2022/03/26 04:27:51;;;;;;;29.98;14.27;;;;;;;6.57;49.06;101780.38;4895497;29;20052;-67
2022/03/26 04:30:20;;;;;;;25.92;13.07;;;;;;;6.49;49.38;101775.22;4895631;29;20061;-67
2022/03/26 04:32:48;;;;;;;32.83;13.52;;;;;;;6.42;50.50;101781.56;4895822;29;20056;-67
2022/03/26 04:35:16;;;;;;;26.42;14.05;;;;;;;6.38;50.49;101784.91;4895084;29;20049;-67
2022/03/26 04:37:44;;;;;;;23.90;13.43;;;;;;;6.39;49.92;101792.84;4896562;29;20064;-68
2022/03/26 04:40:14;;;;;;;33.10;14.57;;;;;;;6.37;49.88;101792.25;4895216;29;20048;-67
2022/03/26 04:42:42;;;;;;;26.05;12.70;;;;;;;6.34;50.63;101789.97;4898399;29;20060;-67
2022/03/26 04:45:10;;;;;;;27.48;14.13;;;;;;;6.29;50.62;101793.34;4899757;29;20804;-67
2022/03/26 04:47:40;;;;;;;29.05;14.18;;;;;;;6.22;50.84;101787.16;4899361;29;20068;-67
2022/03/26 04:50:10;;;;;;;28.52;13.20;;;;;;;6.22;51.17;101805.31;4899905;29;20506;-67
2022/03/26 04:52:38;;;;;;;23.15;13.52;;;;;;;6.20;51.28;101802.00;4899553;29;20048;-67
2022/03/26 04:55:11;;;;;;;27.65;14.00;;;;;;;6.17;51.73;101795.94;4899793;29;20159;-67
2022/03/26 04:57:43;;;;;;;27.17;13.50;;;;;;;6.14;51.91;101803.69;4886667;29;20436;-67
2022/03/26 05:00:13;;;;;;;28.25;13.25;;;;;;;6.15;52.50;101806.22;4899760;29;20059;-68
2022/03/26 05:02:41;;;;;;;30.60;14.38;;;;;;;6.12;52.76;101808.53;4898998;29;20059;-67
2022/03/26 05:05:11;;;;;;;26.08;13.73;;;;;;;6.13;53.25;101812.91;4899500;29;20059;-67
2022/03/26 05:07:45;;;;;;;26.63;14.15;;;;;;;6.11;53.27;101812.31;4899467;29;20040;-67
2022/03/26 05:10:14;;;;;;;30.65;14.23;;;;;;;6.16;53.10;101820.66;4899491;29;20063;-67
2022/03/26 05:12:43;;;;;;;27.02;14.32;;;;;;;6.16;53.20;101824.19;4898935;29;20067;-67
2022/03/26 05:15:13;;;;;;;30.77;14.32;;;;;;;6.40;52.37;101834.50;4898906;29;20048;-67
2022/03/26 05:17:41;;;;;;;35.47;13.90;;;;;;;6.37;52.55;101832.19;4899406;29;20373;-67
2022/03/26 05:20:14;;;;;;;29.13;14.27;;;;;;;6.30;52.36;101826.78;4899206;29;20048;-67
2022/03/26 05:22:44;;;;;;;27.27;14.57;;;;;;;6.29;52.75;101841.44;4899210;29;20134;-68
2022/03/26 05:25:13;;;;;;;34.90;15.02;;;;;;;6.33;52.09;101845.41;4899290;29;20472;-67
2022/03/26 05:27:52;;;;;;;26.90;14.43;;;;;;;6.36;52.39;101841.41;4898650;29;20059;-67
2022/03/26 05:30:22;;;;;;;28.92;13.55;;;;;;;6.39;52.33;101849.13;4899330;29;20053;-67
2022/03/26 05:32:50;;;;;;;29.55;15.63;;;;;;;6.59;50.96;101846.25;4898432;29;20056;-67
2022/03/26 05:35:18;;;;;;;32.85;14.02;;;;;;;6.70;50.71;101848.25;4899106;29;20515;-67
2022/03/26 05:37:50;;;;;;;34.38;14.73;;;;;;;6.76;50.52;101856.56;4898234;29;20048;-68
2022/03/26 05:40:20;;;;;;;34.78;15.88;;;;;;;6.93;49.09;101860.41;4898285;29;20053;-68
2022/03/26 05:42:50;;;;;;;33.70;15.57;;;;;;;6.94;49.97;101856.63;4898354;29;20068;-68
2022/03/26 05:45:19;;;;;;;33.20;15.98;;;;;;;7.00;49.86;101860.34;4885862;29;20064;-67
2022/03/26 05:47:51;;;;;;;32.33;15.57;;;;;;;7.28;48.43;101858.19;4896946;29;20052;-67
2022/03/26 05:50:19;;;;;;;28.50;14.43;;;;;;;7.35;48.04;101865.22;4898479;29;20053;-67
2022/03/26 05:52:48;;;;;;;33.78;15.55;;;;;;;7.37;48.88;101867.69;4896199;29;20067;-67
2022/03/26 05:55:19;;;;;;;34.90;15.55;;;;;;;7.42;48.56;101865.13;4898459;29;20061;-67
2022/03/26 05:57:47;;;;;;;31.30;16.63;;;;;;;7.47;48.40;101876.19;4898623;29;20496;-68
2022/03/26 06:00:16;;;;;;;34.50;15.98;;;;;;;7.69;48.45;101878.47;4898590;29;20076;-68
2022/03/26 06:02:46;;;;;;;33.78;15.20;;;;;;;7.86;47.48;101886.00;4898093;29;20110;-67
2022/03/26 06:05:16;;;;;;;34.28;14.95;;;;;;;8.09;47.21;101889.88;4898011;29;20053;-68
2022/03/26 06:07:44;;;;;;;31.63;14.93;;;;;;;8.15;46.72;101894.41;4898161;29;20053;-68
2022/03/26 06:10:12;;;;;;;31.70;14.77;;;;;;;8.20;46.28;101900.00;4898125;29;20049;-67
2022/03/26 06:12:44;;;;;;;33.97;14.52;;;;;;;8.26;46.29;101898.28;4896819;29;20531;-67
2022/03/26 06:15:13;;;;;;;29.88;16.00;;;;;;;8.32;46.76;101906.34;4898025;29;20064;-67
2022/03/26 06:18:02;;;;;;;34.08;16.73;;;;;;;8.57;46.90;101913.56;4897606;29;20057;-68
2022/03/26 06:20:31;;;;;;;31.95;15.02;;;;;;;8.45;47.50;101897.13;4897574;29;20053;-68
2022/03/26 06:22:59;;;;;;;35.88;16.35;;;;;;;8.42;46.90;101902.22;4897488;29;20063;-77
2022/03/26 06:25:32;;;;;;;40.05;16.73;;;;;;;8.58;46.49;101900.75;4879204;29;20395;-69
2022/03/26 06:28:00;;;;;;;37.40;16.55;;;;;;;8.82;45.70;101903.53;4896662;29;20484;-68
2022/03/26 06:30:28;;;;;;;37.83;17.25;;;;;;;9.05;45.17;101910.06;4897126;29;20048;-68
2022/03/26 06:32:56;;;;;;;37.75;17.40;;;;;;;9.32;45.07;101910.44;4897694;29;20053;-69
2022/03/26 06:35:24;;;;;;;38.13;16.60;;;;;;;9.72;45.08;101899.81;4895580;29;20386;-70
2022/03/26 06:37:53;;;;;;;33.97;17.95;;;;;;;9.86;44.31;101903.91;4897753;29;20047;-68
2022/03/26 06:40:22;;;;;;;31.30;17.23;;;;;;;10.20;43.46;101912.25;4895762;29;20048;-69
2022/03/26 06:42:50;;;;;;;35.85;17.25;;;;;;;10.41;43.32;101909.88;4886281;29;20048;-69
2022/03/26 06:45:18;;;;;;;38.97;18.17;;;;;;;10.54;42.58;101916.97;4897260;29;20060;-69
2022/03/26 06:47:46;;;;;;;40.65;17.42;;;;;;;10.87;42.08;101914.50;4897169;29;20513;-69
2022/03/26 06:50:14;;;;;;;42.05;18.23;;;;;;;11.13;41.86;101925.88;4893662;29;20057;-69
2022/03/26 06:52:43;;;;;;;35.88;17.25;;;;;;;11.25;41.74;101912.06;4895465;29;20049;-69
2022/03/26 06:55:11;;;;;;;37.58;17.30;;;;;;;11.08;41.34;101920.31;4887846;29;20130;-68
2022/03/26 06:57:41;;;;;;;34.63;17.30;;;;;;;11.32;40.90;101931.06;4894185;29;20122;-70
2022/03/26 07:00:15;;;;;;;30.65;16.98;;;;;;;11.58;40.36;101923.22;4887432;29;20040;-69
2022/03/26 07:02:44;;;;;;;37.45;18.05;;;;;;;11.94;40.53;101924.47;4888767;29;20049;-69
2022/03/26 07:05:12;;;;;;;37.38;16.88;;;;;;;12.17;40.88;101927.25;4895168;29;20048;-69
2022/03/26 07:07:41;;;;;;;34.53;18.38;;;;;;;12.60;39.98;101935.63;4897081;29;20052;-68
2022/03/26 07:10:09;;;;;;;33.55;17.08;;;;;;;12.94;38.75;101929.88;4896094;29;20044;-69
2022/03/26 07:12:37;;;;;;;31.33;16.70;;;;;;;13.20;37.06;101930.06;4896748;29;20047;-69
2022/03/26 07:15:08;;;;;;;32.65;17.88;;;;;;;13.27;36.66;101925.19;4896675;29;20460;-70
2022/03/26 07:17:41;;;;;;;35.17;17.45;;;;;;;13.39;36.71;101930.47;4894638;29;20049;-69
2022/03/26 07:20:09;;;;;;;36.72;18.73;;;;;;;13.61;36.18;101935.03;4891772;29;20148;-70
2022/03/26 07:22:38;;;;;;;31.63;16.48;;;;;;;14.07;35.27;101928.88;4893887;29;20590;-69
2022/03/26 07:25:07;;;;;;;35.10;17.27;;;;;;;13.91;36.07;101928.00;4893666;29;20049;-70
2022/03/26 07:27:36;;;;;;;33.50;16.05;;;;;;;13.75;35.78;101932.63;4885423;29;20037;-75
2022/03/26 07:30:06;;;;;;;32.00;16.83;;;;;;;13.70;36.54;101918.84;4889294;29;20449;-74
2022/03/26 07:32:35;;;;;;;36.92;18.55;;;;;;;13.70;36.11;101925.16;4895646;29;20068;-74
2022/03/26 07:35:04;;;;;;;31.10;16.83;;;;;;;13.68;36.76;101923.75;4896359;29;20052;-75
2022/03/26 07:37:31;;;;;;;31.67;17.65;;;;;;;13.66;36.30;101920.47;4895302;29;20060;-75
2022/03/26 07:40:00;;;;;;;33.42;18.08;;;;;;;13.70;35.92;101921.59;4892985;29;20049;-75
2022/03/26 07:42:28;;;;;;;32.53;16.70;;;;;;;13.83;35.93;101931.25;4888975;29;20059;-75
2022/03/26 07:44:56;;;;;;;36.30;16.98;;;;;;;13.87;35.08;101926.88;4894516;29;20060;-75
2022/03/26 07:47:24;;;;;;;28.40;16.00;;;;;;;13.98;35.98;101933.22;4896654;29;20048;-76
2022/03/26 07:49:52;;;;;;;36.63;17.20;;;;;;;14.02;34.24;101941.81;4896546;29;20412;-76
2022/03/26 07:52:20;;;;;;;37.55;18.10;;;;;;;14.04;34.15;101936.84;4896556;29;20040;-76
2022/03/26 07:54:48;;;;;;;30.08;16.63;;;;;;;14.32;34.60;101943.00;4896783;29;20056;-75
2022/03/26 07:57:16;;;;;;;27.38;15.40;;;;;;;14.40;34.78;101938.84;4894447;29;20060;-75
2022/03/26 07:59:44;;;;;;;33.70;15.85;;;;;;;14.36;34.66;101949.59;4902126;29;20044;-76
2022/03/26 08:02:12;;;;;;;29.95;15.93;;;;;;;14.37;34.41;101934.72;4902390;29;20044;-75
2022/03/26 08:04:40;;;;;;;31.77;16.45;;;;;;;14.51;35.06;101940.53;4898395;29;20077;-76
2022/03/26 08:07:08;;;;;;;33.58;18.08;;;;;;;14.58;34.42;101951.28;4896963;29;20051;-75
2022/03/26 08:09:36;;;;;;;34.80;17.05;;;;;;;14.56;34.89;101937.78;4894802;29;20519;-77
2022/03/26 08:12:05;;;;;;;38.28;18.33;;;;;;;14.62;35.17;101941.38;4895593;29;20049;-75
2022/03/26 08:14:34;;;;;;;34.47;18.25;;;;;;;14.64;35.13;101947.44;4895198;29;20051;-75
2022/03/26 08:17:03;;;;;;;34.63;19.70;;;;;;;14.76;35.33;101953.53;4897562;29;20526;-72
2022/03/26 08:19:34;;;;;;;39.20;19.25;;;;;;;14.84;35.94;101948.56;4899898;29;20044;-71
2022/03/26 08:22:03;;;;;;;41.70;20.15;;;;;;;14.95;34.97;101955.72;4899939;29;20503;-72
2022/03/26 08:24:32;;;;;;;41.83;20.52;;;;;;;15.19;34.69;101949.66;4899370;29;20048;-71
2022/03/26 08:27:00;;;;;;;41.17;21.25;;;;;;;15.30;34.36;101950.47;4899288;29;20548;-72
2022/03/26 08:29:28;;;;;;;44.78;20.77;;;;;;;15.57;34.57;101949.31;4895105;29;20056;-72
2022/03/26 08:31:57;;;;;;;41.33;21.48;;;;;;;15.48;33.93;101957.31;4884999;29;20045;-72
2022/03/26 08:34:25;;;;;;;39.45;19.58;;;;;;;15.61;34.26;101947.63;4882938;29;20064;-72
2022/03/26 08:36:53;;;;;;;34.67;20.35;;;;;;;15.77;34.21;101950.31;4887922;29;20037;-72
2022/03/26 08:39:23;;;;;;;38.13;21.08;;;;;;;15.85;33.68;101961.63;4890435;29;20053;-72
2022/03/26 08:41:51;;;;;;;36.22;20.13;;;;;;;15.87;33.38;101952.25;4891103;29;20057;-72
2022/03/26 08:44:19;;;;;;;36.72;20.08;;;;;;;15.85;33.42;101961.63;4899132;29;20048;-72
2022/03/26 08:46:46;;;;;;;36.97;19.38;;;;;;;15.88;33.99;101951.13;4899417;29;20503;-73
2022/03/26 08:49:15;;;;;;;40.53;21.48;;;;;;;16.02;34.24;101954.94;4899531;29;20044;-73
2022/03/26 08:51:43;;;;;;;40.15;20.25;;;;;;;16.05;33.78;101948.88;4886395;29;20056;-74
2022/03/26 08:54:11;;;;;;;42.72;21.27;;;;;;;16.07;33.86;101943.88;4898654;29;20048;-70
2022/03/26 08:56:39;;;;;;;40.92;21.75;;;;;;;16.16;33.64;101946.03;4897936;29;20069;-71
2022/03/26 08:59:07;;;;;;;40.45;20.75;;;;;;;16.21;33.43;101952.38;4899349;29;20055;-71
2022/03/26 09:01:36;;;;;;;44.08;23.13;;;;;;;16.29;33.54;101942.66;4899346;29;20396;-71
2022/03/26 09:04:05;;;;;;;37.28;19.90;;;;;;;16.45;33.19;101942.56;4899248;29;20062;-70
2022/03/26 09:06:36;;;;;;;37.53;21.67;;;;;;;16.45;33.76;101945.31;4897510;29;20508;-71
2022/03/26 09:09:04;;;;;;;40.17;21.98;;;;;;;16.37;33.30;101949.50;4898465;29;20044;-69
2022/03/26 09:11:34;;;;;;;40.92;22.10;;;;;;;16.48;32.66;101942.81;4897818;29;20060;-69
2022/03/26 09:14:04;;;;;;;42.13;21.83;;;;;;;16.69;32.46;101939.91;4899039;29;20385;-71
2022/03/26 09:16:32;;;;;;;42.53;20.15;;;;;;;16.79;31.50;101944.53;4897212;29;20412;-76
2022/03/26 09:19:00;;;;;;;46.45;22.50;;;;;;;16.85;31.50;101945.28;4899030;29;20048;-76
2022/03/26 09:21:28;;;;;;;40.47;22.42;;;;;;;17.08;31.78;101943.75;4897203;29;20057;-76
2022/03/26 09:23:56;;;;;;;38.35;20.83;;;;;;;17.13;31.33;101940.94;4898923;29;20416;-76
2022/03/26 09:26:24;;;;;;;41.17;21.67;;;;;;;17.22;31.16;101945.81;4897315;29;20429;-76
2022/03/26 09:28:52;;;;;;;37.20;21.33;;;;;;;17.09;30.99;101947.31;4897624;29;20580;-76
2022/03/26 09:31:20;;;;;;;42.83;21.58;;;;;;;17.15;30.48;101944.22;4897393;29;20166;-76
2022/03/26 09:33:49;;;;;;;44.08;21.95;;;;;;;17.27;30.83;101938.31;4898866;29;20079;-76
2022/03/26 09:36:18;;;;;;;43.15;21.95;;;;;;;17.49;29.58;101941.69;4898329;29;20056;-76
2022/03/26 09:38:46;;;;;;;42.33;21.15;;;;;;;17.59;30.02;101947.91;4898941;29;20397;-76
2022/03/26 09:41:14;;;;;;;36.58;21.10;;;;;;;17.68;29.74;101947.25;4898097;29;20408;-75
2022/03/26 09:43:42;;;;;;;40.83;20.08;;;;;;;18.11;28.99;101954.78;4898648;29;20049;-68
2022/03/26 09:46:12;;;;;;;35.92;20.38;;;;;;;18.67;27.71;101943.97;4898240;29;20075;-68
2022/03/26 09:48:40;;;;;;;37.55;20.30;;;;;;;19.00;27.57;101941.22;4898106;29;20048;-68
2022/03/26 09:51:08;;;;;;;37.08;20.83;;;;;;;19.38;26.96;101947.78;4898348;29;20404;-68
2022/03/26 09:53:36;;;;;;;31.80;18.30;;;;;;;19.56;26.05;101944.09;4896934;29;20055;-67
2022/03/26 09:56:04;;;;;;;36.13;19.67;;;;;;;19.79;26.34;101938.63;4897791;29;20049;-68
2022/03/26 09:58:33;;;;;;;36.63;20.80;;;;;;;20.27;25.48;101942.06;4898106;29;20068;-68
2022/03/26 10:01:00;;;;;;;44.90;20.98;;;;;;;20.20;24.97;101941.69;4898219;29;20056;-68
2022/03/26 10:03:29;;;;;;;30.67;18.50;;;;;;;19.71;26.26;101944.91;4898064;29;20052;-68
2022/03/26 10:06:04;;;;;;;36.10;19.73;;;;;;;19.56;25.24;101941.31;4898202;29;20080;-68
2022/03/26 10:08:36;;;;;;;33.60;19.13;;;;;;;19.33;26.20;101946.75;4897969;29;20056;-68
2022/03/26 10:11:06;;;;;;;36.50;20.88;;;;;;;19.56;26.79;101946.84;4895492;29;20109;-68
2022/03/26 10:13:42;;;;;;;37.10;20.45;;;;;;;20.05;24.99;101940.91;4898214;29;20484;-68
2022/03/26 10:16:13;;;;;;;34.05;19.35;;;;;;;20.50;25.75;101930.97;4897460;29;20503;-68
2022/03/26 10:18:45;;;;;;;37.75;21.05;;;;;;;20.61;24.80;101935.16;4897749;29;20045;-68
2022/03/26 10:21:15;;;;;;;36.35;20.50;;;;;;;21.06;24.41;101933.47;4897805;29;20404;-68
2022/03/26 10:23:51;;;;;;;35.33;20.17;;;;;;;20.77;24.62;101926.44;4897342;29;20049;-68
2022/03/26 10:26:24;;;;;;;38.65;21.88;;;;;;;21.00;24.50;101926.41;4895802;29;20408;-68
2022/03/26 10:28:56;;;;;;;36.30;20.52;;;;;;;20.57;25.75;101928.56;4897098;29;20056;-68
2022/03/26 10:34:20;;;;;;;33.83;19.45;;;;;;;21.10;23.86;101928.13;4897551;29;20049;-68
2022/03/26 10:37:00;;;;;;;33.25;19.05;;;;;;;20.85;24.64;101927.63;4896561;29;20416;-68
2022/03/26 10:39:29;;;;;;;35.05;18.50;;;;;;;21.06;24.01;101925.13;4897089;29;20048;-68
2022/03/26 10:41:58;;;;;;;35.30;20.55;;;;;;;21.41;24.16;101922.50;4896674;29;20412;-69
2022/03/26 10:44:29;;;;;;;37.95;20.73;;;;;;;21.34;24.17;101919.38;4896573;29;20064;-68
2022/03/26 10:47:03;;;;;;;36.85;20.27;;;;;;;21.20;23.98;101911.13;4896826;29;20486;-68
2022/03/26 10:49:37;;;;;;;;;;;;;;;21.52;24.54;101911.09;4894853;29;20052;-68
2022/03/26 10:52:16;;;;;;;34.55;20.08;;;;;;;21.46;23.99;101918.78;4897628;29;19924;-69
2022/03/26 10:54:46;;;;;;;41.92;21.30;;;;;;;21.60;23.68;101918.63;4896649;29;20147;-69
2022/03/26 10:57:18;;;;;;;38.58;21.70;;;;;;;22.08;23.60;101921.72;4897128;29;20056;-68
2022/03/26 10:59:48;;;;;;;43.65;22.10;;;;;;;21.68;24.31;101917.84;4894964;29;20057;-68
2022/03/26 11:02:16;;;;;;;42.50;21.48;;;;;;;22.02;24.24;101907.97;4896983;29;20052;-68
2022/03/26 11:04:44;;;;;;;40.30;21.65;;;;;;;21.61;23.59;101915.53;4896395;29;20049;-69
2022/03/26 11:07:12;;;;;;;38.92;22.50;;;;;;;21.71;23.95;101908.06;4896879;29;20045;-69
2022/03/26 11:09:46;;;;;;;43.22;22.52;;;;;;;21.68;24.04;101903.09;4895813;29;20056;-71
2022/03/26 11:12:17;;;;;;;41.47;23.13;;;;;;;22.06;24.03;101908.13;4896230;29;20076;-69
2022/03/26 11:14:47;;;;;;;42.60;22.42;;;;;;;21.90;23.60;101905.00;4896466;29;20060;-69
2022/03/26 11:17:41;;;;;;;38.10;23.00;;;;;;;21.60;24.10;101901.94;4896533;29;20059;-69
2022/03/26 11:20:24;;;;;;;40.63;22.90;;;;;;;22.09;23.91;101901.88;4895992;29;20408;-70
2022/03/26 11:22:58;;;;;;;41.72;23.40;;;;;;;22.06;23.33;101898.94;4891928;29;20037;-70
2022/03/26 11:25:55;;;;;;;42.45;23.67;;;;;;;22.03;23.59;101900.41;4896514;29;20561;-70